createdAt,value
2023-02-07T00:01:25.525Z,2.25
2023-02-07T00:03:53.134Z,1.65
2023-02-07T00:06:27.354Z,2.03
2023-02-07T00:08:55.037Z,2.53
2023-02-07T00:11:23.610Z,1.83
2023-02-07T00:13:59.148Z,1.88
2023-02-07T00:16:27.193Z,1.77
2023-02-07T00:18:55.093Z,1.83
2023-02-07T00:21:23.958Z,1.80
2023-02-07T00:23:51.702Z,2.17
2023-02-07T00:26:20.228Z,1.98
2023-02-07T00:28:48.064Z,2.67
2023-02-07T00:31:29.939Z,2.25
2023-02-07T00:34:00.865Z,2.70
2023-02-07T00:36:30.012Z,1.92
2023-02-07T00:39:02.255Z,1.80
2023-02-07T00:41:29.773Z,3.20
2023-02-07T00:43:57.331Z,2.38
2023-02-07T00:46:26.879Z,1.70
2023-02-07T00:48:54.268Z,1.50
2023-02-07T00:51:21.596Z,1.88
2023-02-07T00:53:48.648Z,1.70
2023-02-07T00:56:18.384Z,1.95
2023-02-07T00:58:45.661Z,2.80
2023-02-07T01:01:15.599Z,2.42
2023-02-07T01:03:42.954Z,2.33
2023-02-07T01:06:10.426Z,2.10
2023-02-07T01:08:38.394Z,2.08
2023-02-07T01:11:08.760Z,3.33
2023-02-07T01:13:35.980Z,2.58
2023-02-07T01:16:03.729Z,2.42
2023-02-07T01:18:30.721Z,2.45
2023-02-07T01:20:57.827Z,2.63
2023-02-07T01:23:24.928Z,1.98
2023-02-07T01:25:51.930Z,2.60
2023-02-07T01:28:18.845Z,1.83
2023-02-07T01:30:46.136Z,2.10
2023-02-07T01:33:13.205Z,2.95
2023-02-07T01:35:40.409Z,2.63
2023-02-07T01:38:07.634Z,2.13
2023-02-07T01:40:37.926Z,2.70
2023-02-07T01:43:04.949Z,2.80
2023-02-07T01:45:40.470Z,2.42
2023-02-07T01:48:30.049Z,3.03
2023-02-07T01:51:00.773Z,2.67
2023-02-07T01:53:30.256Z,2.45
2023-02-07T01:56:00.518Z,3.10
2023-02-07T01:58:28.184Z,2.72
2023-02-07T02:00:55.709Z,2.80
2023-02-07T02:03:22.686Z,2.45
2023-02-07T02:05:52.153Z,2.85
2023-02-07T02:08:19.088Z,2.47
2023-02-07T02:10:51.739Z,2.10
2023-02-07T02:13:27.458Z,2.67
2023-02-07T02:16:31.552Z,3.05
2023-02-07T02:19:36.911Z,2.40
2023-02-07T02:22:43.653Z,2.40
2023-02-07T02:25:19.344Z,3.17
2023-02-07T02:28:18.037Z,5.65
2023-02-07T02:31:21.830Z,3.97
2023-02-07T02:33:54.893Z,3.65
2023-02-07T02:36:46.143Z,2.30
2023-02-07T02:39:25.515Z,2.70
2023-02-07T02:42:06.514Z,3.47
2023-02-07T02:44:48.522Z,3.28
2023-02-07T02:47:17.505Z,3.33
2023-02-07T02:49:45.224Z,3.90
2023-02-07T02:52:12.286Z,3.50
2023-02-07T02:54:40.556Z,2.33
2023-02-07T02:57:38.146Z,3.00
2023-02-07T03:00:14.314Z,3.15
2023-02-07T03:03:13.918Z,2.58
2023-02-07T03:06:05.094Z,2.83
2023-02-07T03:09:09.647Z,3.10
2023-02-07T03:11:50.006Z,3.13
2023-02-07T03:14:45.990Z,3.35
2023-02-07T03:17:29.169Z,2.95
2023-02-07T03:20:10.600Z,3.17
2023-02-07T03:22:38.714Z,2.80
2023-02-07T03:25:07.983Z,3.42
2023-02-07T03:27:37.124Z,3.28
2023-02-07T03:30:09.255Z,3.50
2023-02-07T03:32:46.765Z,3.08
2023-02-07T03:35:24.909Z,2.67
2023-02-07T03:37:55.923Z,4.07
2023-02-07T03:40:26.576Z,3.65
2023-02-07T03:43:08.345Z,2.95
2023-02-07T03:45:36.005Z,4.32
2023-02-07T03:48:03.132Z,2.95
2023-02-07T03:50:30.166Z,3.42
2023-02-07T03:52:57.006Z,3.22
2023-02-07T03:55:24.006Z,3.58
2023-02-07T03:57:51.213Z,3.63
2023-02-07T04:00:18.346Z,3.30
2023-02-07T04:02:48.016Z,3.20
2023-02-07T04:05:18.002Z,3.60
2023-02-07T04:07:45.071Z,3.58
2023-02-07T04:10:12.792Z,4.10
2023-02-07T04:12:39.898Z,3.25
2023-02-07T04:15:07.705Z,4.45
2023-02-07T04:17:34.855Z,3.17
2023-02-07T04:20:02.221Z,4.55
2023-02-07T04:22:29.485Z,3.72
2023-02-07T04:24:57.357Z,3.10
2023-02-07T04:27:24.733Z,4.18
2023-02-07T04:29:51.671Z,4.15
2023-02-07T04:32:21.120Z,4.68
2023-02-07T04:34:48.082Z,6.47
2023-02-07T04:37:15.541Z,5.30
2023-02-07T04:39:42.421Z,10.70
2023-02-07T04:42:09.348Z,5.10
2023-02-07T04:44:36.460Z,5.80
2023-02-07T04:47:03.464Z,5.32
2023-02-07T04:49:33.814Z,3.78
2023-02-07T04:52:05.186Z,4.95
2023-02-07T04:54:32.223Z,5.25
2023-02-07T04:56:59.141Z,4.97
2023-02-07T04:59:26.275Z,4.05
2023-02-07T05:01:56.374Z,6.15
2023-02-07T05:04:23.346Z,4.10
2023-02-07T05:06:50.620Z,5.05
2023-02-07T05:09:17.747Z,8.75
2023-02-07T05:11:44.878Z,5.18
2023-02-07T05:14:11.886Z,29.00
2023-02-07T05:16:52.882Z,18.08
2023-02-07T05:19:20.125Z,13.77
2023-02-07T05:21:49.953Z,7.38
2023-02-07T05:24:16.932Z,5.85
2023-02-07T05:26:43.985Z,5.88
2023-02-07T05:29:11.103Z,6.03
2023-02-07T05:31:38.111Z,5.38
2023-02-07T05:34:05.053Z,6.43
2023-02-07T05:36:32.048Z,6.35
2023-02-07T05:38:58.958Z,6.53
2023-02-07T05:41:26.468Z,4.20
2023-02-07T05:43:53.768Z,4.70
2023-02-07T05:46:20.803Z,4.32
2023-02-07T05:48:47.678Z,3.72
2023-02-07T05:51:14.991Z,3.35
2023-02-07T05:53:42.142Z,4.03
2023-02-07T05:56:09.358Z,3.60
2023-02-07T05:58:36.509Z,3.72
2023-02-07T06:01:06.128Z,6.15
2023-02-07T06:03:33.009Z,9.07
2023-02-07T06:06:00.125Z,6.22
2023-02-07T06:08:26.950Z,5.57
2023-02-07T06:10:53.933Z,5.43
2023-02-07T06:13:21.015Z,7.68
2023-02-07T06:15:48.498Z,5.68
2023-02-07T06:18:15.350Z,6.55
2023-02-07T06:20:42.363Z,5.80
2023-02-07T06:23:09.394Z,5.78
2023-02-07T06:25:36.681Z,9.93
2023-02-07T06:28:04.238Z,10.73
2023-02-07T06:30:31.830Z,10.68
2023-02-07T06:32:58.815Z,8.45
2023-02-07T06:35:26.557Z,6.55
2023-02-07T06:37:55.083Z,7.68
2023-02-07T06:40:25.129Z,8.60
2023-02-07T06:42:52.300Z,8.25
2023-02-07T06:45:19.250Z,12.90
2023-02-07T06:47:46.716Z,8.70
2023-02-07T06:50:14.028Z,8.35
2023-02-07T06:52:40.905Z,6.32
2023-02-07T06:55:12.124Z,9.63
2023-02-07T06:57:39.434Z,8.65
2023-02-07T07:00:06.771Z,8.70
2023-02-07T07:02:33.646Z,6.20
2023-02-07T07:05:00.766Z,10.23
2023-02-07T07:07:27.629Z,6.63
2023-02-07T07:09:54.542Z,7.05
2023-02-07T07:12:22.350Z,8.25
2023-02-07T07:14:49.244Z,8.85
2023-02-07T07:17:16.108Z,5.30
2023-02-07T07:19:43.683Z,5.40
2023-02-07T07:22:10.700Z,6.75
2023-02-07T07:24:37.590Z,8.85
2023-02-07T07:27:04.781Z,6.72
2023-02-07T07:29:31.563Z,6.37
2023-02-07T07:31:58.667Z,7.88
2023-02-07T07:34:25.826Z,6.10
2023-02-07T07:36:55.095Z,7.55
2023-02-07T07:39:21.981Z,6.60
2023-02-07T07:41:48.973Z,7.27
2023-02-07T07:44:16.170Z,7.43
2023-02-07T07:46:43.399Z,6.95
2023-02-07T07:49:10.723Z,7.97
2023-02-07T07:51:38.272Z,8.32
2023-02-07T07:54:05.179Z,8.27
2023-02-07T07:56:32.592Z,9.23
2023-02-07T07:59:01.566Z,7.15
2023-02-07T08:01:30.396Z,8.05
2023-02-07T08:04:01.061Z,7.43
2023-02-07T08:06:28.478Z,7.40
2023-02-07T08:08:55.451Z,9.20
2023-02-07T08:11:23.913Z,9.00
2023-02-07T08:13:52.875Z,5.88
2023-02-07T08:16:19.834Z,7.32
2023-02-07T08:18:47.106Z,5.70
2023-02-07T08:21:14.385Z,5.57
2023-02-07T08:23:41.371Z,4.47
2023-02-07T08:26:09.132Z,4.40
2023-02-07T08:28:36.294Z,3.15
2023-02-07T08:31:05.829Z,3.27
2023-02-07T08:33:33.156Z,3.70
2023-02-07T08:36:00.028Z,3.75
2023-02-07T08:38:27.121Z,5.05
2023-02-07T08:40:54.125Z,3.35
2023-02-07T08:43:20.933Z,4.23
2023-02-07T08:45:49.186Z,4.38
2023-02-07T08:48:16.313Z,5.05
2023-02-07T08:50:43.306Z,3.83
2023-02-07T08:53:10.575Z,6.47
2023-02-07T08:55:40.209Z,3.37
2023-02-07T08:58:09.666Z,2.90
2023-02-07T09:00:36.704Z,3.55
2023-02-07T09:03:05.022Z,3.15
2023-02-07T09:05:32.440Z,5.03
2023-02-07T09:08:00.754Z,5.97
2023-02-07T09:10:27.994Z,9.18
2023-02-07T09:12:54.854Z,5.32
2023-02-07T09:15:21.668Z,4.47
2023-02-07T09:17:48.863Z,4.35
2023-02-07T09:20:15.899Z,5.33
2023-02-07T09:22:42.926Z,12.23
2023-02-07T09:25:10.148Z,8.90
2023-02-07T09:27:37.385Z,13.73
2023-02-07T09:30:04.767Z,6.80
2023-02-07T09:32:31.899Z,7.03
2023-02-07T09:34:59.047Z,9.20
2023-02-07T09:37:25.961Z,9.88
2023-02-07T09:39:52.877Z,7.03
2023-02-07T09:42:25.903Z,5.18
2023-02-07T09:45:12.476Z,6.32
2023-02-07T09:47:43.051Z,7.60
2023-02-07T09:50:21.498Z,5.53
2023-02-07T09:52:51.307Z,5.57
2023-02-07T09:55:25.520Z,9.25
2023-02-07T09:58:14.523Z,5.53
2023-02-07T10:00:43.671Z,6.65
2023-02-07T10:03:15.444Z,3.80
2023-02-07T10:06:18.862Z,3.10
2023-02-07T10:08:52.719Z,3.65
2023-02-07T10:11:25.679Z,3.37
2023-02-07T10:14:13.477Z,3.47
2023-02-07T10:16:55.011Z,2.85
2023-02-07T10:19:43.904Z,2.97
2023-02-07T10:22:36.241Z,2.65
2023-02-07T10:25:15.405Z,3.80
2023-02-07T10:28:10.154Z,3.20
2023-02-07T10:30:41.531Z,2.97
2023-02-07T10:33:16.007Z,2.92
2023-02-07T10:35:45.614Z,3.50
2023-02-07T10:38:23.366Z,2.58
2023-02-07T10:41:17.351Z,2.63
2023-02-07T10:43:47.362Z,3.00
2023-02-07T10:46:18.236Z,2.80
2023-02-07T10:48:46.392Z,3.85
2023-02-07T10:51:37.783Z,3.40
2023-02-07T10:54:11.145Z,2.90
2023-02-07T10:56:46.764Z,2.80
2023-02-07T10:59:36.117Z,3.35
2023-02-07T11:02:29.211Z,3.55
2023-02-07T11:04:57.840Z,2.70
2023-02-07T11:07:25.490Z,3.20
2023-02-07T11:09:52.580Z,3.53
2023-02-07T11:12:24.916Z,3.67
2023-02-07T11:15:08.316Z,3.60
2023-02-07T11:17:35.429Z,3.47
2023-02-07T11:20:05.203Z,2.78
2023-02-07T11:22:32.470Z,3.78
2023-02-07T11:25:08.499Z,3.13
2023-02-07T11:27:41.310Z,3.20
2023-02-07T11:30:20.516Z,3.60
2023-02-07T11:32:58.226Z,3.10
2023-02-07T11:35:25.923Z,3.15
2023-02-07T11:38:13.340Z,3.38
2023-02-07T11:40:43.228Z,3.40
2023-02-07T11:43:10.086Z,3.47
2023-02-07T11:45:41.018Z,3.67
2023-02-07T11:48:17.098Z,3.40
2023-02-07T11:50:52.762Z,3.00
2023-02-07T11:53:26.838Z,3.97
2023-02-07T11:55:56.158Z,3.80
2023-02-07T11:58:36.499Z,3.30
2023-02-07T12:01:06.341Z,3.58
2023-02-07T12:03:50.664Z,3.30
2023-02-07T12:06:22.420Z,3.97
2023-02-07T12:08:50.994Z,2.83
2023-02-07T12:11:33.408Z,4.68
2023-02-07T12:14:15.201Z,3.00
2023-02-07T12:16:50.042Z,3.13
2023-02-07T12:19:43.595Z,2.85
2023-02-07T12:22:22.204Z,2.90
2023-02-07T12:25:21.262Z,2.92
2023-02-07T12:27:52.103Z,3.55
2023-02-07T12:30:41.954Z,3.30
2023-02-07T12:33:46.136Z,3.75
2023-02-07T12:36:21.186Z,2.80
2023-02-07T12:38:55.394Z,3.63
2023-02-07T12:41:34.317Z,2.97
2023-02-07T12:44:06.127Z,2.78
2023-02-07T12:47:03.445Z,2.97
2023-02-07T12:49:40.014Z,3.17
2023-02-07T12:52:07.284Z,3.35
2023-02-07T12:54:36.790Z,3.10
2023-02-07T12:57:19.290Z,2.70
2023-02-07T13:00:16.264Z,3.17
2023-02-07T13:03:11.259Z,4.13
2023-02-07T13:05:58.262Z,3.10
2023-02-07T13:08:32.795Z,3.50
2023-02-07T13:11:18.038Z,3.67
2023-02-07T13:13:55.974Z,4.47
2023-02-07T13:16:39.515Z,2.90
2023-02-07T13:19:25.426Z,3.17
2023-02-07T13:22:20.107Z,3.05
2023-02-07T13:24:48.863Z,4.05
2023-02-07T13:27:20.984Z,3.42
2023-02-07T13:29:50.337Z,2.75
2023-02-07T13:32:30.496Z,3.22
2023-02-07T13:35:07.545Z,3.45
2023-02-07T13:38:05.240Z,2.53
2023-02-07T13:40:56.182Z,2.45
2023-02-07T13:43:40.218Z,2.83
2023-02-07T13:46:43.615Z,2.80
2023-02-07T13:49:23.865Z,3.20
2023-02-07T13:51:53.756Z,3.53
2023-02-07T13:54:29.445Z,4.15
2023-02-07T13:56:58.717Z,3.63
2023-02-07T13:59:37.039Z,2.90
2023-02-07T14:02:07.608Z,2.58
2023-02-07T14:04:55.176Z,3.22
2023-02-07T14:07:32.222Z,3.13
2023-02-07T14:09:59.291Z,3.08
2023-02-07T14:12:31.684Z,2.15
2023-02-07T14:15:18.963Z,2.92
2023-02-07T14:18:36.894Z,3.30
2023-02-07T14:21:20.493Z,3.08
2023-02-07T14:24:03.029Z,2.72
2023-02-07T14:26:39.310Z,3.55
2023-02-07T14:29:21.346Z,2.63
2023-02-07T14:32:11.916Z,3.20
2023-02-07T14:35:04.360Z,3.30
2023-02-07T14:37:46.548Z,3.33
2023-02-07T14:40:19.422Z,3.72
2023-02-07T14:43:05.425Z,4.30
2023-02-07T14:45:36.304Z,2.88
2023-02-07T14:48:05.858Z,2.90
2023-02-07T14:50:33.623Z,2.83
2023-02-07T14:53:03.848Z,4.72
2023-02-07T14:55:40.865Z,3.08
2023-02-07T14:58:24.121Z,2.67
2023-02-07T15:00:57.062Z,4.85
2023-02-07T15:03:24.070Z,3.40
2023-02-07T15:05:59.917Z,4.13
2023-02-07T15:08:29.854Z,3.47
2023-02-07T15:11:01.315Z,4.35
2023-02-07T15:13:32.827Z,3.00
2023-02-07T15:16:01.804Z,3.00
2023-02-07T15:18:32.799Z,2.85
2023-02-07T15:21:00.657Z,3.30
2023-02-07T15:23:30.333Z,3.53
2023-02-07T15:26:06.316Z,4.45
2023-02-07T15:28:33.482Z,3.35
2023-02-07T15:31:13.602Z,3.70
2023-02-07T15:34:01.905Z,3.60
2023-02-07T15:36:38.357Z,4.65
2023-02-07T15:39:16.568Z,3.60
2023-02-07T15:41:47.516Z,2.85
2023-02-07T15:44:26.514Z,3.97
2023-02-07T15:47:04.781Z,3.85
2023-02-07T15:49:41.301Z,3.53
2023-02-07T15:52:14.393Z,3.95
2023-02-07T15:54:49.930Z,4.07
2023-02-07T15:57:40.826Z,4.75
2023-02-07T16:00:15.869Z,4.93
2023-02-07T16:02:44.883Z,4.38
2023-02-07T16:05:27.604Z,4.45
2023-02-07T16:07:54.997Z,3.70
2023-02-07T16:10:24.606Z,3.35
2023-02-07T16:12:53.459Z,3.95
2023-02-07T16:15:30.424Z,4.32
2023-02-07T16:17:57.439Z,4.65
2023-02-07T16:20:26.513Z,4.25
2023-02-07T16:22:58.122Z,4.90
2023-02-07T16:25:30.887Z,8.98
2023-02-07T16:27:58.273Z,5.70
2023-02-07T16:30:36.160Z,5.00
2023-02-07T16:33:07.157Z,5.18
2023-02-07T16:35:36.512Z,3.83
2023-02-07T16:38:03.434Z,5.63
2023-02-07T16:40:30.727Z,6.97
2023-02-07T16:42:58.104Z,3.97
2023-02-07T16:45:30.185Z,4.85
2023-02-07T16:47:59.524Z,4.93
2023-02-07T16:50:28.933Z,4.00
2023-02-07T16:52:57.507Z,3.90
2023-02-07T16:55:26.986Z,4.93
2023-02-07T16:57:55.053Z,5.15
2023-02-07T17:00:25.329Z,5.43
2023-02-07T17:02:53.302Z,4.93
2023-02-07T17:05:22.342Z,5.57
2023-02-07T17:07:50.126Z,6.10
2023-02-07T17:10:28.026Z,5.32
2023-02-07T17:12:57.362Z,4.50
2023-02-07T17:15:24.656Z,5.00
2023-02-07T17:17:52.271Z,4.80
2023-02-07T17:20:28.203Z,4.82
2023-02-07T17:22:55.554Z,5.70
2023-02-07T17:25:25.320Z,4.78
2023-02-07T17:27:52.526Z,3.92
2023-02-07T17:30:25.522Z,5.53
2023-02-07T17:32:53.585Z,4.80
2023-02-07T17:35:21.880Z,4.80
2023-02-07T17:37:49.560Z,4.97
2023-02-07T17:40:22.974Z,5.57
2023-02-07T17:42:50.473Z,6.53
2023-02-07T17:45:19.486Z,6.90
2023-02-07T17:47:46.642Z,8.52
2023-02-07T17:50:23.994Z,8.68
2023-02-07T17:52:51.313Z,5.38
2023-02-07T17:55:18.514Z,4.97
2023-02-07T17:57:45.797Z,5.90
2023-02-07T18:00:21.872Z,5.25
2023-02-07T18:02:50.031Z,6.40
2023-02-07T18:05:18.493Z,5.95
2023-02-07T18:07:50.093Z,5.03
2023-02-07T18:10:22.083Z,5.90
2023-02-07T18:12:49.220Z,5.65
2023-02-07T18:15:17.002Z,5.82
2023-02-07T18:17:44.154Z,4.65
2023-02-07T18:20:13.253Z,5.20
2023-02-07T18:22:40.358Z,5.53
2023-02-07T18:25:07.715Z,5.70
2023-02-07T18:27:35.803Z,4.90
2023-02-07T18:30:03.988Z,4.82
2023-02-07T18:32:31.146Z,5.13
2023-02-07T18:34:58.113Z,5.65
2023-02-07T18:37:25.308Z,7.93
2023-02-07T18:39:53.028Z,6.38
2023-02-07T18:42:19.933Z,5.13
2023-02-07T18:44:47.104Z,6.40
2023-02-07T18:47:14.123Z,4.93
2023-02-07T18:49:41.339Z,4.50
2023-02-07T18:52:08.447Z,6.35
2023-02-07T18:54:42.572Z,6.15
2023-02-07T18:57:09.357Z,5.82
2023-02-07T18:59:37.617Z,4.65
2023-02-07T19:02:05.888Z,3.72
2023-02-07T19:04:33.399Z,4.75
2023-02-07T19:07:00.593Z,3.95
2023-02-07T19:09:36.598Z,4.50
2023-02-07T19:12:03.579Z,4.35
2023-02-07T19:14:31.607Z,4.18
2023-02-07T19:17:00.780Z,4.75
2023-02-07T19:19:30.471Z,3.55
2023-02-07T19:21:58.117Z,4.35
2023-02-07T19:24:26.309Z,4.72
2023-02-07T19:26:56.125Z,4.53
2023-02-07T19:29:25.704Z,3.88
2023-02-07T19:31:53.230Z,4.40
2023-02-07T19:34:20.352Z,4.22
2023-02-07T19:36:49.652Z,3.83
2023-02-07T19:39:17.173Z,4.28
2023-02-07T19:41:44.626Z,4.05
2023-02-07T19:44:12.253Z,3.35
2023-02-07T19:46:39.503Z,3.58
2023-02-07T19:49:06.832Z,4.38
2023-02-07T19:51:33.741Z,3.28
2023-02-07T19:54:01.325Z,4.20
2023-02-07T19:56:31.094Z,2.78
2023-02-07T19:58:58.017Z,3.75
2023-02-07T20:01:25.923Z,3.88
2023-02-07T20:03:53.738Z,3.47
2023-02-07T20:06:23.766Z,3.40
2023-02-07T20:08:50.831Z,4.03
2023-02-07T20:11:19.712Z,4.40
2023-02-07T20:13:49.174Z,3.28
2023-02-07T20:16:22.426Z,4.03
2023-02-07T20:18:50.161Z,4.55
2023-02-07T20:21:19.957Z,3.30
2023-02-07T20:23:49.196Z,3.15
2023-02-07T20:26:20.256Z,3.30
2023-02-07T20:28:47.995Z,3.75
2023-02-07T20:31:18.296Z,3.83
2023-02-07T20:33:45.860Z,4.10
2023-02-07T20:36:15.723Z,3.50
2023-02-07T20:38:44.968Z,3.38
2023-02-07T20:41:18.177Z,3.72
2023-02-07T20:43:45.210Z,3.58
2023-02-07T20:46:14.943Z,3.55
2023-02-07T20:48:41.978Z,2.40
2023-02-07T20:51:10.499Z,3.22
2023-02-07T20:53:43.487Z,3.00
2023-02-07T20:56:15.578Z,3.97
2023-02-07T20:58:42.808Z,3.08
2023-02-07T21:01:16.395Z,2.78
2023-02-07T21:03:46.654Z,3.13
2023-02-07T21:06:13.742Z,4.05
2023-02-07T21:08:41.095Z,4.72
2023-02-07T21:11:09.884Z,3.40
2023-02-07T21:13:37.680Z,3.70
2023-02-07T21:16:06.960Z,5.03
2023-02-07T21:18:35.254Z,4.55
2023-02-07T21:21:07.585Z,3.95
2023-02-07T21:23:35.769Z,4.05
2023-02-07T21:26:04.712Z,3.92
2023-02-07T21:28:32.160Z,4.80
2023-02-07T21:31:09.916Z,3.72
2023-02-07T21:33:37.345Z,3.67
2023-02-07T21:36:08.243Z,4.38
2023-02-07T21:38:36.084Z,3.97
2023-02-07T21:41:05.314Z,4.20
2023-02-07T21:43:32.389Z,4.72
2023-02-07T21:46:04.235Z,3.72
2023-02-07T21:48:31.678Z,3.75
2023-02-07T21:51:10.358Z,4.18
2023-02-07T21:53:38.375Z,5.15
2023-02-07T21:56:11.955Z,4.20
2023-02-07T21:58:39.687Z,3.90
2023-02-07T22:01:09.876Z,4.80
2023-02-07T22:03:38.437Z,3.70
2023-02-07T22:06:07.720Z,4.50
2023-02-07T22:08:36.068Z,5.70
2023-02-07T22:11:05.421Z,4.55
2023-02-07T22:13:33.885Z,3.97
2023-02-07T22:16:00.788Z,5.32
2023-02-07T22:18:28.543Z,3.80
2023-02-07T22:20:55.630Z,3.97
2023-02-07T22:23:22.611Z,4.22
2023-02-07T22:25:52.463Z,3.50
2023-02-07T22:28:19.566Z,3.03
2023-02-07T22:30:46.948Z,5.15
2023-02-07T22:33:14.287Z,5.03
2023-02-07T22:35:42.942Z,3.92
2023-02-07T22:38:12.817Z,3.53
2023-02-07T22:40:42.425Z,4.13
2023-02-07T22:43:15.845Z,3.63
2023-02-07T22:45:43.076Z,3.22
2023-02-07T22:48:10.143Z,3.90
2023-02-07T22:50:38.785Z,4.03
2023-02-07T22:53:05.861Z,3.83
2023-02-07T22:55:33.706Z,4.38
2023-02-07T22:58:01.408Z,3.58
2023-02-07T23:00:28.804Z,2.83
2023-02-07T23:02:56.186Z,3.42
2023-02-07T23:05:23.721Z,4.20
2023-02-07T23:07:50.598Z,3.83
2023-02-07T23:10:17.521Z,4.03
2023-02-07T23:12:45.492Z,4.10
2023-02-07T23:15:13.248Z,3.13
2023-02-07T23:17:40.273Z,3.22
2023-02-07T23:20:07.492Z,3.47
2023-02-07T23:22:39.442Z,3.05
2023-02-07T23:25:07.379Z,3.42
2023-02-07T23:27:34.658Z,3.22
2023-02-07T23:30:01.605Z,4.38
2023-02-07T23:32:28.758Z,4.10
2023-02-07T23:34:55.681Z,4.05
2023-02-07T23:37:22.634Z,4.95
2023-02-07T23:39:49.742Z,4.32
2023-02-07T23:42:17.006Z,4.78
2023-02-07T23:44:43.873Z,4.72
2023-02-07T23:47:10.887Z,3.97
2023-02-07T23:49:37.738Z,4.10
2023-02-07T23:52:04.827Z,5.28
2023-02-07T23:54:32.371Z,5.63
2023-02-07T23:56:59.512Z,3.88
2023-02-07T23:59:26.604Z,3.92
